Harare, Zimbabwe

1:13 AM CAT on December 04, 2016 (GMT +0200)
Harare International | | Change Station

Elev 4856 ft 17.92 °S, 31.13 °E | Updated 13 minutes ago

Clear
Clear
66 °F
Feels Like 66 °F
N
7
Wind Variable Wind from NE

Today
High -- | Low -- °F
--% Chance of Precip.
Yesterday
High -- | Low -- °F
Precip. -- in
Pressure 30.18 in
Visibility -9999.0 miles
Clouds
Dew Point 61 °F
Humidity 83%
Rainfall 0.00 in
Snow Depth Not available.
5:11 AM 6:20 PM
Waxing Crescent, 18% visible
METAR FVHA 032300Z 04006KT CAVOK 19/16 Q1022 NOSIG
Pressure 30.18 in
Visibility -9999.0 miles
Clouds
Dew Point 61 °F
Humidity 83%
Rainfall 0.00 in
Snow Depth Not available.
5:11 AM 6:20 PM
Waxing Crescent, 18% visible
METAR FVHA 032300Z 04006KT CAVOK 19/16 Q1022 NOSIG

10-Day Weather Forecast

No radar image for this location.
×

Almanac

Astronomy

Dec. 04, 2016 Rise Set
Actual Time
Civil Twilight
Nautical Twilight
Astronomical Twilight
Moon
Length of Visible Light
Length of Day
Tomorrow will be .
, % of the Moon is Illuminated

Today's Extremes

Country Highs Country Lows

Community

WunderPhotos

Upload Photos

1,955,540 photos uploaded!

WunderBlog® & News

Nearby

Air Quality

  Air Quality AQ Index Pollutant
Not available.

Snow Depth

Station Depth Elevation

Earthquake Activity

City Distance Mag. Time & Date
Minimum magnitude displayed is 2.5.

Coastal Water Temperatures

Place Temperature

Stations

Nearby Weather Stations

Station Location Temp. Windchill Dew Point Humidity Wind Precip. Elev Updated Type